sensor_id;sensor_type;location;lat;lon;timestamp;P1;durP1;ratioP1;P2;durP2;ratioP2
10872;SDS011;34586;53.616;10.032;2022-09-12T00:00:29;1.80;;;1.70;;
10872;SDS011;34586;53.616;10.032;2022-09-12T00:02:57;2.40;;;2.30;;
10872;SDS011;34586;53.616;10.032;2022-09-12T00:05:24;2.30;;;2.20;;
10872;SDS011;34586;53.616;10.032;2022-09-12T00:07:50;2.17;;;1.97;;
10872;SDS011;34586;53.616;10.032;2022-09-12T00:10:16;2.83;;;2.43;;
10872;SDS011;34586;53.616;10.032;2022-09-12T00:12:42;2.53;;;2.23;;
10872;SDS011;34586;53.616;10.032;2022-09-12T00:15:08;2.27;;;2.10;;
10872;SDS011;34586;53.616;10.032;2022-09-12T00:17:35;2.93;;;2.40;;
10872;SDS011;34586;53.616;10.032;2022-09-12T00:20:03;2.67;;;2.47;;
10872;SDS011;34586;53.616;10.032;2022-09-12T00:22:31;2.13;;;2.03;;
10872;SDS011;34586;53.616;10.032;2022-09-12T00:24:56;2.73;;;2.53;;
10872;SDS011;34586;53.616;10.032;2022-09-12T00:27:22;2.23;;;2.13;;
10872;SDS011;34586;53.616;10.032;2022-09-12T00:29:48;2.57;;;2.23;;
10872;SDS011;34586;53.616;10.032;2022-09-12T00:32:13;2.93;;;2.50;;
10872;SDS011;34586;53.616;10.032;2022-09-12T00:34:39;2.20;;;2.10;;
10872;SDS011;34586;53.616;10.032;2022-09-12T00:37:04;2.73;;;2.20;;
10872;SDS011;34586;53.616;10.032;2022-09-12T00:39:30;2.50;;;2.40;;
10872;SDS011;34586;53.616;10.032;2022-09-12T00:41:55;2.53;;;2.33;;
10872;SDS011;34586;53.616;10.032;2022-09-12T00:52:13;2.30;;;2.17;;
10872;SDS011;34586;53.616;10.032;2022-09-12T00:54:42;2.53;;;2.33;;
10872;SDS011;34586;53.616;10.032;2022-09-12T00:57:11;2.80;;;2.60;;
10872;SDS011;34586;53.616;10.032;2022-09-12T00:59:49;2.50;;;2.40;;
10872;SDS011;34586;53.616;10.032;2022-09-12T01:02:17;2.90;;;2.70;;
10872;SDS011;34586;53.616;10.032;2022-09-12T01:04:43;2.83;;;2.63;;
10872;SDS011;34586;53.616;10.032;2022-09-12T01:07:09;2.30;;;2.20;;
10872;SDS011;34586;53.616;10.032;2022-09-12T01:09:36;2.60;;;2.40;;
10872;SDS011;34586;53.616;10.032;2022-09-12T01:12:03;2.77;;;2.57;;
10872;SDS011;34586;53.616;10.032;2022-09-12T01:14:29;2.93;;;2.60;;
10872;SDS011;34586;53.616;10.032;2022-09-12T01:16:56;2.33;;;2.17;;
10872;SDS011;34586;53.616;10.032;2022-09-12T01:25:06;2.63;;;2.50;;
10872;SDS011;34586;53.616;10.032;2022-09-12T01:27:45;2.73;;;2.50;;
10872;SDS011;34586;53.616;10.032;2022-09-12T01:33:32;2.87;;;2.77;;
10872;SDS011;34586;53.616;10.032;2022-09-12T01:37:00;3.10;;;2.57;;
10872;SDS011;34586;53.616;10.032;2022-09-12T01:39:03;2.97;;;2.77;;
10872;SDS011;34586;53.616;10.032;2022-09-12T01:41:39;3.07;;;2.97;;
10872;SDS011;34586;53.616;10.032;2022-09-12T01:44:31;2.77;;;2.57;;
10872;SDS011;34586;53.616;10.032;2022-09-12T01:47:10;3.10;;;2.80;;
10872;SDS011;34586;53.616;10.032;2022-09-12T01:50:00;3.07;;;2.77;;
10872;SDS011;34586;53.616;10.032;2022-09-12T01:52:36;3.53;;;2.97;;
10872;SDS011;34586;53.616;10.032;2022-09-12T01:55:12;3.13;;;2.93;;
10872;SDS011;34586;53.616;10.032;2022-09-12T01:57:51;3.70;;;3.40;;
10872;SDS011;34586;53.616;10.032;2022-09-12T02:00:21;3.53;;;3.23;;
10872;SDS011;34586;53.616;10.032;2022-09-12T02:02:50;3.40;;;3.10;;
10872;SDS011;34586;53.616;10.032;2022-09-12T02:05:28;2.97;;;2.77;;
10872;SDS011;34586;53.616;10.032;2022-09-12T02:08:02;2.87;;;2.67;;
10872;SDS011;34586;53.616;10.032;2022-09-12T02:10:35;3.23;;;2.80;;
10872;SDS011;34586;53.616;10.032;2022-09-12T02:13:24;3.97;;;2.50;;
10872;SDS011;34586;53.616;10.032;2022-09-12T02:16:07;2.43;;;2.23;;
10872;SDS011;34586;53.616;10.032;2022-09-12T02:18:36;2.40;;;2.30;;
10872;SDS011;34586;53.616;10.032;2022-09-12T02:21:05;2.90;;;2.57;;
10872;SDS011;34586;53.616;10.032;2022-09-12T02:23:31;3.07;;;2.87;;
10872;SDS011;34586;53.616;10.032;2022-09-12T02:26:02;2.77;;;2.57;;
10872;SDS011;34586;53.616;10.032;2022-09-12T02:28:33;2.90;;;2.70;;
10872;SDS011;34586;53.616;10.032;2022-09-12T02:39:42;3.33;;;3.13;;
10872;SDS011;34586;53.616;10.032;2022-09-12T02:42:08;3.50;;;3.30;;
10872;SDS011;34586;53.616;10.032;2022-09-12T02:44:33;3.17;;;2.97;;
10872;SDS011;34586;53.616;10.032;2022-09-12T02:49:32;3.63;;;3.33;;
10872;SDS011;34586;53.616;10.032;2022-09-12T02:51:58;3.63;;;3.33;;
10872;SDS011;34586;53.616;10.032;2022-09-12T02:54:25;3.87;;;3.57;;
10872;SDS011;34586;53.616;10.032;2022-09-12T02:56:51;3.70;;;3.40;;
10872;SDS011;34586;53.616;10.032;2022-09-12T02:59:18;4.17;;;3.87;;
10872;SDS011;34586;53.616;10.032;2022-09-12T03:01:54;4.47;;;4.03;;
10872;SDS011;34586;53.616;10.032;2022-09-12T03:23:49;3.90;;;3.60;;
10872;SDS011;34586;53.616;10.032;2022-09-12T03:26:53;4.23;;;3.73;;
10872;SDS011;34586;53.616;10.032;2022-09-12T03:29:22;3.60;;;3.30;;
10872;SDS011;34586;53.616;10.032;2022-09-12T03:31:51;3.73;;;3.53;;
10872;SDS011;34586;53.616;10.032;2022-09-12T03:34:22;4.00;;;3.70;;
10872;SDS011;34586;53.616;10.032;2022-09-12T03:36:49;4.10;;;3.80;;
10872;SDS011;34586;53.616;10.032;2022-09-12T03:39:15;4.13;;;3.83;;
10872;SDS011;34586;53.616;10.032;2022-09-12T03:41:41;3.80;;;3.50;;
10872;SDS011;34586;53.616;10.032;2022-09-12T03:44:07;4.00;;;3.70;;
10872;SDS011;34586;53.616;10.032;2022-09-12T03:46:32;3.87;;;3.57;;
10872;SDS011;34586;53.616;10.032;2022-09-12T03:48:58;4.80;;;3.80;;
10872;SDS011;34586;53.616;10.032;2022-09-12T03:51:24;5.20;;;3.73;;
10872;SDS011;34586;53.616;10.032;2022-09-12T03:53:49;5.33;;;4.27;;
10872;SDS011;34586;53.616;10.032;2022-09-12T03:56:15;4.70;;;4.30;;
10872;SDS011;34586;53.616;10.032;2022-09-12T03:58:42;4.70;;;4.30;;
10872;SDS011;34586;53.616;10.032;2022-09-12T04:03:36;5.03;;;4.27;;
10872;SDS011;34586;53.616;10.032;2022-09-12T04:06:03;4.63;;;4.17;;
10872;SDS011;34586;53.616;10.032;2022-09-12T04:08:29;4.57;;;4.27;;
10872;SDS011;34586;53.616;10.032;2022-09-12T04:11:00;5.23;;;3.93;;
10872;SDS011;34586;53.616;10.032;2022-09-12T04:13:30;4.57;;;4.27;;
10872;SDS011;34586;53.616;10.032;2022-09-12T04:15:56;4.97;;;4.40;;
10872;SDS011;34586;53.616;10.032;2022-09-12T04:18:23;4.87;;;4.47;;
10872;SDS011;34586;53.616;10.032;2022-09-12T04:20:50;5.07;;;4.60;;
10872;SDS011;34586;53.616;10.032;2022-09-12T04:23:15;5.40;;;4.30;;
10872;SDS011;34586;53.616;10.032;2022-09-12T04:25:41;5.00;;;4.60;;
10872;SDS011;34586;53.616;10.032;2022-09-12T04:28:06;5.83;;;5.33;;
10872;SDS011;34586;53.616;10.032;2022-09-12T04:30:32;5.10;;;4.70;;
10872;SDS011;34586;53.616;10.032;2022-09-12T04:32:58;5.80;;;5.20;;
10872;SDS011;34586;53.616;10.032;2022-09-12T04:35:24;5.40;;;5.00;;
10872;SDS011;34586;53.616;10.032;2022-09-12T04:37:51;6.00;;;5.50;;
10872;SDS011;34586;53.616;10.032;2022-09-12T04:40:17;5.53;;;5.13;;
10872;SDS011;34586;53.616;10.032;2022-09-12T04:42:43;5.90;;;5.40;;
10872;SDS011;34586;53.616;10.032;2022-09-12T04:45:09;6.17;;;5.67;;
10872;SDS011;34586;53.616;10.032;2022-09-12T04:47:35;6.53;;;6.00;;
10872;SDS011;34586;53.616;10.032;2022-09-12T04:50:00;5.87;;;5.43;;
10872;SDS011;34586;53.616;10.032;2022-09-12T04:52:26;6.50;;;5.90;;
10872;SDS011;34586;53.616;10.032;2022-09-12T04:54:51;7.53;;;6.80;;
10872;SDS011;34586;53.616;10.032;2022-09-12T04:57:17;7.00;;;6.50;;
10872;SDS011;34586;53.616;10.032;2022-09-12T04:59:43;6.93;;;6.23;;
10872;SDS011;34586;53.616;10.032;2022-09-12T05:02:08;7.73;;;7.03;;
10872;SDS011;34586;53.616;10.032;2022-09-12T05:04:34;7.30;;;6.60;;
10872;SDS011;34586;53.616;10.032;2022-09-12T05:07:00;7.63;;;6.93;;
10872;SDS011;34586;53.616;10.032;2022-09-12T05:09:25;7.90;;;7.00;;
10872;SDS011;34586;53.616;10.032;2022-09-12T05:11:51;7.50;;;6.77;;
10872;SDS011;34586;53.616;10.032;2022-09-12T05:14:17;7.53;;;6.83;;
10872;SDS011;34586;53.616;10.032;2022-09-12T05:16:43;7.80;;;6.93;;
10872;SDS011;34586;53.616;10.032;2022-09-12T05:19:09;8.80;;;7.83;;
10872;SDS011;34586;53.616;10.032;2022-09-12T05:21:35;8.30;;;7.60;;
10872;SDS011;34586;53.616;10.032;2022-09-12T05:24:01;8.50;;;7.70;;
10872;SDS011;34586;53.616;10.032;2022-09-12T05:26:27;11.23;;;8.30;;
10872;SDS011;34586;53.616;10.032;2022-09-12T05:28:54;8.37;;;7.57;;
10872;SDS011;34586;53.616;10.032;2022-09-12T05:31:20;9.23;;;8.00;;
10872;SDS011;34586;53.616;10.032;2022-09-12T05:33:51;8.83;;;8.00;;
10872;SDS011;34586;53.616;10.032;2022-09-12T05:36:19;8.27;;;7.57;;
10872;SDS011;34586;53.616;10.032;2022-09-12T05:38:46;8.87;;;8.07;;
10872;SDS011;34586;53.616;10.032;2022-09-12T05:41:16;10.33;;;8.23;;
10872;SDS011;34586;53.616;10.032;2022-09-12T05:43:43;9.13;;;8.00;;
10872;SDS011;34586;53.616;10.032;2022-09-12T05:46:11;8.10;;;7.33;;
10872;SDS011;34586;53.616;10.032;2022-09-12T05:48:39;8.77;;;7.93;;
10872;SDS011;34586;53.616;10.032;2022-09-12T05:51:06;8.37;;;7.57;;
10872;SDS011;34586;53.616;10.032;2022-09-12T05:53:38;10.13;;;8.17;;
10872;SDS011;34586;53.616;10.032;2022-09-12T05:56:08;8.43;;;7.67;;
10872;SDS011;34586;53.616;10.032;2022-09-12T05:58:36;8.37;;;7.67;;
10872;SDS011;34586;53.616;10.032;2022-09-12T06:01:04;9.30;;;8.50;;
10872;SDS011;34586;53.616;10.032;2022-09-12T06:03:32;9.53;;;8.53;;
10872;SDS011;34586;53.616;10.032;2022-09-12T06:06:02;9.57;;;8.67;;
10872;SDS011;34586;53.616;10.032;2022-09-12T06:08:29;8.97;;;8.17;;
10872;SDS011;34586;53.616;10.032;2022-09-12T06:11:02;9.23;;;8.33;;
10872;SDS011;34586;53.616;10.032;2022-09-12T06:13:33;10.53;;;8.87;;
10872;SDS011;34586;53.616;10.032;2022-09-12T06:16:07;10.43;;;9.53;;
10872;SDS011;34586;53.616;10.032;2022-09-12T06:18:34;10.03;;;9.20;;
10872;SDS011;34586;53.616;10.032;2022-09-12T06:21:04;11.10;;;9.40;;
10872;SDS011;34586;53.616;10.032;2022-09-12T06:23:31;10.60;;;9.60;;
10872;SDS011;34586;53.616;10.032;2022-09-12T06:25:57;10.57;;;9.20;;
10872;SDS011;34586;53.616;10.032;2022-09-12T06:28:23;10.10;;;9.10;;
10872;SDS011;34586;53.616;10.032;2022-09-12T06:30:49;9.00;;;8.20;;
10872;SDS011;34586;53.616;10.032;2022-09-12T06:33:15;10.03;;;9.03;;
10872;SDS011;34586;53.616;10.032;2022-09-12T06:35:41;10.33;;;9.27;;
10872;SDS011;34586;53.616;10.032;2022-09-12T06:38:07;10.70;;;9.80;;
10872;SDS011;34586;53.616;10.032;2022-09-12T06:40:33;9.20;;;8.43;;
10872;SDS011;34586;53.616;10.032;2022-09-12T06:42:59;9.53;;;8.57;;
10872;SDS011;34586;53.616;10.032;2022-09-12T06:45:25;10.33;;;9.37;;
10872;SDS011;34586;53.616;10.032;2022-09-12T06:47:51;9.97;;;8.97;;
10872;SDS011;34586;53.616;10.032;2022-09-12T06:50:17;10.40;;;9.40;;
10872;SDS011;34586;53.616;10.032;2022-09-12T06:52:42;9.77;;;8.97;;
10872;SDS011;34586;53.616;10.032;2022-09-12T06:55:08;9.63;;;8.77;;
10872;SDS011;34586;53.616;10.032;2022-09-12T06:57:34;10.23;;;9.30;;
10872;SDS011;34586;53.616;10.032;2022-09-12T07:00:05;9.47;;;8.67;;
10872;SDS011;34586;53.616;10.032;2022-09-12T07:02:31;10.80;;;9.80;;
10872;SDS011;34586;53.616;10.032;2022-09-12T07:04:57;10.13;;;9.13;;
10872;SDS011;34586;53.616;10.032;2022-09-12T07:07:22;9.03;;;8.23;;
10872;SDS011;34586;53.616;10.032;2022-09-12T07:09:48;9.63;;;8.73;;
10872;SDS011;34586;53.616;10.032;2022-09-12T07:12:14;10.07;;;8.70;;
10872;SDS011;34586;53.616;10.032;2022-09-12T07:14:39;10.27;;;8.93;;
10872;SDS011;34586;53.616;10.032;2022-09-12T07:17:05;10.23;;;9.23;;
10872;SDS011;34586;53.616;10.032;2022-09-12T07:19:32;10.63;;;8.13;;
10872;SDS011;34586;53.616;10.032;2022-09-12T07:21:58;9.40;;;8.50;;
10872;SDS011;34586;53.616;10.032;2022-09-12T07:24:24;7.87;;;7.10;;
10872;SDS011;34586;53.616;10.032;2022-09-12T07:26:50;7.27;;;6.57;;
10872;SDS011;34586;53.616;10.032;2022-09-12T07:29:15;6.90;;;6.20;;
10872;SDS011;34586;53.616;10.032;2022-09-12T07:31:41;6.27;;;5.67;;
10872;SDS011;34586;53.616;10.032;2022-09-12T07:34:07;6.37;;;5.77;;
10872;SDS011;34586;53.616;10.032;2022-09-12T07:36:33;7.00;;;6.27;;
10872;SDS011;34586;53.616;10.032;2022-09-12T07:38:59;7.43;;;6.83;;
10872;SDS011;34586;53.616;10.032;2022-09-12T07:41:26;6.23;;;5.73;;
10872;SDS011;34586;53.616;10.032;2022-09-12T07:43:57;6.80;;;5.57;;
10872;SDS011;34586;53.616;10.032;2022-09-12T07:46:24;6.03;;;5.53;;
10872;SDS011;34586;53.616;10.032;2022-09-12T07:48:51;6.30;;;5.80;;
10872;SDS011;34586;53.616;10.032;2022-09-12T07:51:18;5.13;;;4.73;;
10872;SDS011;34586;53.616;10.032;2022-09-12T07:53:44;6.07;;;5.60;;
10872;SDS011;34586;53.616;10.032;2022-09-12T07:56:11;5.77;;;5.27;;
10872;SDS011;34586;53.616;10.032;2022-09-12T07:58:38;6.43;;;5.83;;
10872;SDS011;34586;53.616;10.032;2022-09-12T08:01:07;5.50;;;5.00;;
10872;SDS011;34586;53.616;10.032;2022-09-12T08:03:34;5.70;;;5.23;;
10872;SDS011;34586;53.616;10.032;2022-09-12T08:06:03;5.53;;;4.33;;
10872;SDS011;34586;53.616;10.032;2022-09-12T08:08:30;5.50;;;5.00;;
10872;SDS011;34586;53.616;10.032;2022-09-12T08:10:57;4.13;;;3.80;;
10872;SDS011;34586;53.616;10.032;2022-09-12T08:13:25;3.97;;;3.70;;
10872;SDS011;34586;53.616;10.032;2022-09-12T08:15:55;4.13;;;3.60;;
10872;SDS011;34586;53.616;10.032;2022-09-12T08:18:21;3.07;;;2.73;;
10872;SDS011;34586;53.616;10.032;2022-09-12T08:20:47;5.80;;;4.13;;
10872;SDS011;34586;53.616;10.032;2022-09-12T08:23:12;3.93;;;3.60;;
10872;SDS011;34586;53.616;10.032;2022-09-12T08:25:38;3.13;;;2.93;;
10872;SDS011;34586;53.616;10.032;2022-09-12T08:28:03;3.53;;;3.23;;
10872;SDS011;34586;53.616;10.032;2022-09-12T08:30:29;4.33;;;3.80;;
10872;SDS011;34586;53.616;10.032;2022-09-12T08:32:54;3.77;;;3.43;;
10872;SDS011;34586;53.616;10.032;2022-09-12T08:35:20;4.20;;;3.83;;
10872;SDS011;34586;53.616;10.032;2022-09-12T08:37:45;5.77;;;3.47;;
10872;SDS011;34586;53.616;10.032;2022-09-12T08:40:14;3.80;;;2.80;;
10872;SDS011;34586;53.616;10.032;2022-09-12T08:42:51;3.70;;;3.40;;
10872;SDS011;34586;53.616;10.032;2022-09-12T08:45:42;6.00;;;3.90;;
10872;SDS011;34586;53.616;10.032;2022-09-12T08:48:17;6.60;;;3.70;;
10872;SDS011;34586;53.616;10.032;2022-09-12T08:50:43;3.60;;;2.80;;
10872;SDS011;34586;53.616;10.032;2022-09-12T08:53:12;3.73;;;2.40;;
10872;SDS011;34586;53.616;10.032;2022-09-12T08:55:44;3.63;;;2.60;;
10872;SDS011;34586;53.616;10.032;2022-09-12T09:04:20;4.80;;;2.57;;
10872;SDS011;34586;53.616;10.032;2022-09-12T09:15:05;1.87;;;1.70;;
10872;SDS011;34586;53.616;10.032;2022-09-12T09:18:02;3.63;;;1.70;;
10872;SDS011;34586;53.616;10.032;2022-09-12T09:20:37;2.20;;;2.00;;
10872;SDS011;34586;53.616;10.032;2022-09-12T09:26:05;2.50;;;1.50;;
10872;SDS011;34586;53.616;10.032;2022-09-12T09:28:38;2.30;;;1.90;;
10872;SDS011;34586;53.616;10.032;2022-09-12T09:31:17;2.50;;;1.57;;
10872;SDS011;34586;53.616;10.032;2022-09-12T09:33:51;1.40;;;1.30;;
10872;SDS011;34586;53.616;10.032;2022-09-12T09:36:20;2.67;;;1.53;;
10872;SDS011;34586;53.616;10.032;2022-09-12T09:38:59;3.70;;;1.43;;
10872;SDS011;34586;53.616;10.032;2022-09-12T09:44:11;1.13;;;1.07;;
10872;SDS011;34586;53.616;10.032;2022-09-12T09:46:37;0.90;;;0.90;;
10872;SDS011;34586;53.616;10.032;2022-09-12T09:49:02;1.27;;;1.17;;
10872;SDS011;34586;53.616;10.032;2022-09-12T09:51:37;1.47;;;1.33;;
10872;SDS011;34586;53.616;10.032;2022-09-12T09:54:09;1.27;;;1.17;;
10872;SDS011;34586;53.616;10.032;2022-09-12T09:56:40;1.30;;;0.77;;
10872;SDS011;34586;53.616;10.032;2022-09-12T09:59:07;0.93;;;0.60;;
10872;SDS011;34586;53.616;10.032;2022-09-12T10:01:35;1.90;;;0.70;;
10872;SDS011;34586;53.616;10.032;2022-09-12T10:04:08;1.30;;;0.60;;
10872;SDS011;34586;53.616;10.032;2022-09-12T10:06:42;1.70;;;0.70;;
10872;SDS011;34586;53.616;10.032;2022-09-12T10:11:37;0.80;;;0.80;;
10872;SDS011;34586;53.616;10.032;2022-09-12T10:14:03;2.80;;;0.80;;
10872;SDS011;34586;53.616;10.032;2022-09-12T10:16:33;0.70;;;0.60;;
10872;SDS011;34586;53.616;10.032;2022-09-12T10:19:19;1.07;;;0.70;;
10872;SDS011;34586;53.616;10.032;2022-09-12T10:21:50;2.43;;;0.90;;
10872;SDS011;34586;53.616;10.032;2022-09-12T10:24:25;0.90;;;0.90;;
10872;SDS011;34586;53.616;10.032;2022-09-12T10:29:30;1.40;;;1.00;;
10872;SDS011;34586;53.616;10.032;2022-09-12T10:31:58;1.10;;;1.00;;
10872;SDS011;34586;53.616;10.032;2022-09-12T10:34:41;1.10;;;0.93;;
10872;SDS011;34586;53.616;10.032;2022-09-12T10:37:09;1.83;;;1.10;;
10872;SDS011;34586;53.616;10.032;2022-09-12T10:39:54;1.60;;;0.90;;
10872;SDS011;34586;53.616;10.032;2022-09-12T10:45:21;1.07;;;1.00;;
10872;SDS011;34586;53.616;10.032;2022-09-12T10:47:53;2.80;;;1.20;;
10872;SDS011;34586;53.616;10.032;2022-09-12T10:50:27;3.03;;;0.90;;
10872;SDS011;34586;53.616;10.032;2022-09-12T10:53:17;1.20;;;1.10;;
10872;SDS011;34586;53.616;10.032;2022-09-12T10:56:02;1.57;;;1.23;;
10872;SDS011;34586;53.616;10.032;2022-09-12T10:58:45;3.40;;;1.20;;
10872;SDS011;34586;53.616;10.032;2022-09-12T11:04:23;1.20;;;1.00;;
10872;SDS011;34586;53.616;10.032;2022-09-12T11:06:54;1.17;;;1.17;;
10872;SDS011;34586;53.616;10.032;2022-09-12T11:12:36;1.30;;;1.20;;
10872;SDS011;34586;53.616;10.032;2022-09-12T11:17:49;2.97;;;0.87;;
10872;SDS011;34586;53.616;10.032;2022-09-12T11:23:43;1.10;;;1.00;;
10872;SDS011;34586;53.616;10.032;2022-09-12T11:35:21;1.87;;;0.80;;
10872;SDS011;34586;53.616;10.032;2022-09-12T11:46:09;0.90;;;0.70;;
10872;SDS011;34586;53.616;10.032;2022-09-12T11:54:22;0.90;;;0.70;;
10872;SDS011;34586;53.616;10.032;2022-09-12T11:57:25;1.50;;;0.80;;
10872;SDS011;34586;53.616;10.032;2022-09-12T11:59:57;1.50;;;0.90;;
10872;SDS011;34586;53.616;10.032;2022-09-12T12:02:33;0.90;;;0.57;;
10872;SDS011;34586;53.616;10.032;2022-09-12T12:07:30;1.07;;;0.60;;
10872;SDS011;34586;53.616;10.032;2022-09-12T12:10:04;0.80;;;0.80;;
10872;SDS011;34586;53.616;10.032;2022-09-12T12:12:33;2.10;;;0.77;;
10872;SDS011;34586;53.616;10.032;2022-09-12T12:14:59;1.30;;;0.80;;
10872;SDS011;34586;53.616;10.032;2022-09-12T12:17:27;1.53;;;0.70;;
10872;SDS011;34586;53.616;10.032;2022-09-12T12:19:58;0.93;;;0.83;;
10872;SDS011;34586;53.616;10.032;2022-09-12T12:22:25;0.97;;;0.60;;
10872;SDS011;34586;53.616;10.032;2022-09-12T12:24:52;0.70;;;0.70;;
10872;SDS011;34586;53.616;10.032;2022-09-12T12:27:23;0.70;;;0.70;;
10872;SDS011;34586;53.616;10.032;2022-09-12T12:38:04;2.07;;;0.87;;
10872;SDS011;34586;53.616;10.032;2022-09-12T12:43:50;1.93;;;0.70;;
10872;SDS011;34586;53.616;10.032;2022-09-12T12:46:21;0.60;;;0.60;;
10872;SDS011;34586;53.616;10.032;2022-09-12T12:48:53;0.70;;;0.70;;
10872;SDS011;34586;53.616;10.032;2022-09-12T12:51:35;1.83;;;0.93;;
10872;SDS011;34586;53.616;10.032;2022-09-12T12:59:52;2.10;;;1.00;;
10872;SDS011;34586;53.616;10.032;2022-09-12T13:02:32;0.80;;;0.77;;
10872;SDS011;34586;53.616;10.032;2022-09-12T13:05:24;2.50;;;0.80;;
10872;SDS011;34586;53.616;10.032;2022-09-12T13:07:57;1.27;;;0.80;;
10872;SDS011;34586;53.616;10.032;2022-09-12T13:10:29;1.17;;;0.77;;
10872;SDS011;34586;53.616;10.032;2022-09-12T13:12:56;0.80;;;0.70;;
10872;SDS011;34586;53.616;10.032;2022-09-12T13:18:02;2.97;;;1.10;;
10872;SDS011;34586;53.616;10.032;2022-09-12T13:20:36;0.70;;;0.70;;
10872;SDS011;34586;53.616;10.032;2022-09-12T13:23:24;0.60;;;0.60;;
10872;SDS011;34586;53.616;10.032;2022-09-12T13:25:55;3.50;;;1.10;;
10872;SDS011;34586;53.616;10.032;2022-09-12T13:28:22;1.47;;;0.80;;
10872;SDS011;34586;53.616;10.032;2022-09-12T13:30:55;0.93;;;0.80;;
10872;SDS011;34586;53.616;10.032;2022-09-12T13:33:38;0.80;;;0.70;;
10872;SDS011;34586;53.616;10.032;2022-09-12T13:44:31;0.60;;;0.57;;
10872;SDS011;34586;53.616;10.032;2022-09-12T13:47:06;0.93;;;0.80;;
10872;SDS011;34586;53.616;10.032;2022-09-12T13:49:45;0.80;;;0.80;;
10872;SDS011;34586;53.616;10.032;2022-09-12T13:52:19;1.50;;;0.80;;
10872;SDS011;34586;53.616;10.032;2022-09-12T13:54:52;1.37;;;0.60;;
10872;SDS011;34586;53.616;10.032;2022-09-12T13:59:57;1.30;;;0.70;;
10872;SDS011;34586;53.616;10.032;2022-09-12T14:02:24;2.03;;;0.87;;
10872;SDS011;34586;53.616;10.032;2022-09-12T14:04:52;1.13;;;0.80;;
10872;SDS011;34586;53.616;10.032;2022-09-12T14:07:32;1.70;;;0.70;;
10872;SDS011;34586;53.616;10.032;2022-09-12T14:12:57;0.97;;;0.60;;
10872;SDS011;34586;53.616;10.032;2022-09-12T14:15:29;1.27;;;0.80;;
10872;SDS011;34586;53.616;10.032;2022-09-12T14:18:00;0.70;;;0.70;;
10872;SDS011;34586;53.616;10.032;2022-09-12T14:20:28;1.37;;;0.70;;
10872;SDS011;34586;53.616;10.032;2022-09-12T14:22:59;4.23;;;1.00;;
10872;SDS011;34586;53.616;10.032;2022-09-12T14:25:28;0.70;;;0.70;;
10872;SDS011;34586;53.616;10.032;2022-09-12T14:28:01;0.83;;;0.80;;
10872;SDS011;34586;53.616;10.032;2022-09-12T14:30:28;0.60;;;0.60;;
10872;SDS011;34586;53.616;10.032;2022-09-12T14:33:03;0.93;;;0.73;;
10872;SDS011;34586;53.616;10.032;2022-09-12T14:35:41;0.60;;;0.60;;
10872;SDS011;34586;53.616;10.032;2022-09-12T14:40:40;0.90;;;0.90;;
10872;SDS011;34586;53.616;10.032;2022-09-12T14:43:23;2.30;;;1.10;;
10872;SDS011;34586;53.616;10.032;2022-09-12T14:46:06;0.70;;;0.70;;
10872;SDS011;34586;53.616;10.032;2022-09-12T14:48:57;2.27;;;1.17;;
10872;SDS011;34586;53.616;10.032;2022-09-12T14:51:37;1.27;;;1.00;;
10872;SDS011;34586;53.616;10.032;2022-09-12T14:54:04;1.40;;;1.13;;
10872;SDS011;34586;53.616;10.032;2022-09-12T14:56:43;1.57;;;1.03;;
10872;SDS011;34586;53.616;10.032;2022-09-12T14:59:25;1.20;;;1.00;;
10872;SDS011;34586;53.616;10.032;2022-09-12T15:05:14;2.70;;;1.00;;
10872;SDS011;34586;53.616;10.032;2022-09-12T15:07:42;2.33;;;1.37;;
10872;SDS011;34586;53.616;10.032;2022-09-12T15:15:34;1.33;;;1.17;;
10872;SDS011;34586;53.616;10.032;2022-09-12T15:18:01;1.43;;;1.03;;
10872;SDS011;34586;53.616;10.032;2022-09-12T15:20:27;1.13;;;1.03;;
10872;SDS011;34586;53.616;10.032;2022-09-12T15:22:52;0.93;;;0.90;;
10872;SDS011;34586;53.616;10.032;2022-09-12T15:25:18;1.07;;;1.07;;
10872;SDS011;34586;53.616;10.032;2022-09-12T15:27:45;2.27;;;1.27;;
10872;SDS011;34586;53.616;10.032;2022-09-12T15:30:11;1.27;;;1.17;;
10872;SDS011;34586;53.616;10.032;2022-09-12T15:32:38;1.57;;;1.20;;
10872;SDS011;34586;53.616;10.032;2022-09-12T15:35:15;2.80;;;1.10;;
10872;SDS011;34586;53.616;10.032;2022-09-12T15:37:42;1.90;;;1.27;;
10872;SDS011;34586;53.616;10.032;2022-09-12T15:40:08;1.37;;;0.80;;
10872;SDS011;34586;53.616;10.032;2022-09-12T15:42:35;2.87;;;1.00;;
10872;SDS011;34586;53.616;10.032;2022-09-12T15:45:01;2.57;;;1.13;;
10872;SDS011;34586;53.616;10.032;2022-09-12T15:47:28;1.90;;;1.20;;
10872;SDS011;34586;53.616;10.032;2022-09-12T15:49:54;1.63;;;0.93;;
10872;SDS011;34586;53.616;10.032;2022-09-12T15:52:19;1.00;;;1.00;;
10872;SDS011;34586;53.616;10.032;2022-09-12T15:54:45;0.90;;;0.90;;
10872;SDS011;34586;53.616;10.032;2022-09-12T15:57:10;1.37;;;1.20;;
10872;SDS011;34586;53.616;10.032;2022-09-12T15:59:36;2.00;;;1.10;;
10872;SDS011;34586;53.616;10.032;2022-09-12T16:02:01;1.20;;;1.20;;
10872;SDS011;34586;53.616;10.032;2022-09-12T16:04:28;1.17;;;0.97;;
10872;SDS011;34586;53.616;10.032;2022-09-12T16:06:54;1.93;;;1.33;;
10872;SDS011;34586;53.616;10.032;2022-09-12T16:09:21;1.30;;;1.20;;
10872;SDS011;34586;53.616;10.032;2022-09-12T16:11:47;1.87;;;1.30;;
10872;SDS011;34586;53.616;10.032;2022-09-12T16:14:13;0.97;;;0.97;;
10872;SDS011;34586;53.616;10.032;2022-09-12T16:16:41;1.60;;;1.50;;
10872;SDS011;34586;53.616;10.032;2022-09-12T16:19:07;1.77;;;1.40;;
10872;SDS011;34586;53.616;10.032;2022-09-12T16:21:36;2.63;;;1.30;;
10872;SDS011;34586;53.616;10.032;2022-09-12T16:24:02;1.13;;;1.13;;
10872;SDS011;34586;53.616;10.032;2022-09-12T16:26:27;1.47;;;1.33;;
10872;SDS011;34586;53.616;10.032;2022-09-12T16:28:54;1.27;;;1.23;;
10872;SDS011;34586;53.616;10.032;2022-09-12T16:31:20;1.17;;;1.10;;
10872;SDS011;34586;53.616;10.032;2022-09-12T16:33:46;3.17;;;1.87;;
10872;SDS011;34586;53.616;10.032;2022-09-12T16:36:13;2.27;;;1.70;;
10872;SDS011;34586;53.616;10.032;2022-09-12T16:38:45;2.07;;;1.60;;
10872;SDS011;34586;53.616;10.032;2022-09-12T16:41:16;1.43;;;1.33;;
10872;SDS011;34586;53.616;10.032;2022-09-12T16:43:43;1.47;;;1.30;;
10872;SDS011;34586;53.616;10.032;2022-09-12T16:46:16;1.60;;;1.50;;
10872;SDS011;34586;53.616;10.032;2022-09-12T16:48:56;1.77;;;1.67;;
10872;SDS011;34586;53.616;10.032;2022-09-12T16:51:23;2.37;;;2.17;;
10872;SDS011;34586;53.616;10.032;2022-09-12T16:53:51;2.27;;;2.13;;
10872;SDS011;34586;53.616;10.032;2022-09-12T16:56:17;2.10;;;1.80;;
10872;SDS011;34586;53.616;10.032;2022-09-12T16:58:43;2.40;;;1.90;;
10872;SDS011;34586;53.616;10.032;2022-09-12T17:01:11;4.50;;;1.80;;
10872;SDS011;34586;53.616;10.032;2022-09-12T17:03:38;2.70;;;2.50;;
10872;SDS011;34586;53.616;10.032;2022-09-12T17:06:05;2.43;;;2.23;;
10872;SDS011;34586;53.616;10.032;2022-09-12T17:08:36;2.90;;;2.67;;
10872;SDS011;34586;53.616;10.032;2022-09-12T17:11:05;2.90;;;2.53;;
10872;SDS011;34586;53.616;10.032;2022-09-12T17:13:32;2.70;;;2.60;;
10872;SDS011;34586;53.616;10.032;2022-09-12T17:15:57;2.20;;;2.03;;
10872;SDS011;34586;53.616;10.032;2022-09-12T17:18:24;2.77;;;2.57;;
10872;SDS011;34586;53.616;10.032;2022-09-12T17:20:50;2.47;;;2.27;;
10872;SDS011;34586;53.616;10.032;2022-09-12T17:23:16;3.07;;;2.00;;
10872;SDS011;34586;53.616;10.032;2022-09-12T17:25:48;1.83;;;1.73;;
10872;SDS011;34586;53.616;10.032;2022-09-12T17:28:16;4.63;;;2.00;;